الصفحة الرئيسية
METAR-TAF:

METAR-TAF

مطار :

Sirri, إيران

دائرة عرض: 25-54-34N, خط طول: 054-32-22E, ارتفاع: 13 متر

مراقبة الطقس الحالي

تاريخ ووقت الإصدار 22 دقيقة قبل الساعة 06:00UTC
ريح 8 عقدة من الجنوب الغربي
درجة الحرارة 33°درجة مئوية
الرطوبة 80%
ضغط 1005 hPa
الرؤية: 3000 متر
غشاء

METAR: OIBS 010600Z 22008KT 3000 BR NSC 33/29 Q1005

زمن: 10:52 (06:22 UTC)


TAF: مفقودة

أرصاد الطقس والتوقعات من أكثر من 4000 مطار (تقارير الطقس للمطار METAR والتنبؤ بالطقس بالمطارTAF).

المحطات المتاحة هي النقط الصفراء والحمراء على الخريطة.

حرك المؤشر فوق النقطة لمعرفة اسم المحطة.

ثم انقر لمعرفة أرصاد وتوقعات الطقس.

لتغيير الخارطة: اضغط على الأزرار الخضراء مع رمز الصليب الأسود للتكبير. على الزر الأخضر مع شرطة للتصغير، أو على الأسهم الخضراء للخرائط المجاورة.


METAR-TAF: